Terminal Aerodrome Forecast
Issued by NWS Tampa Bay Area, FL

Home | Current Version | Previous Version | Text Only | Print | Product List | Glossary On
Versions: 1 2 3 4 5 6 7 8 9 10 11 12 13 14 15 16
000
FTUS42 KTBW 221124
TAFSRQ
TAF
KSRQ 221124Z 2212/2312 09005KT 1SM BR BKN005
      TEMPO 2212/2214 1/4SM FG VV002
     FM221400 11006KT 6SM BR SCT015
     FM221600 17010KT P6SM SCT030 BKN150
     FM230100 15006KT 5SM SHRA BR SCT010 BKN050
     FM230600 16008KT 3SM SHRA BR BKN010=

USA.gov is the U.S. government's official web portal to all federal, state and local government web resources and services.